This is the latest recevied weather packets stored in our database for station/object KD8DNO-13. If no packets are shown the sender has not sent any weather packets the latest 10 day(s).
| Time | Temp. | Humidity | Pressure | Rain* | Wind** | Luminosity | Snow |
|---|---|---|---|---|---|---|---|
| 1788216183 | 28.89° C | 69% | 1019.3 hPa | 0 mm | - | - | - |
| 1788215883 | 28.89° C | 69% | 1019.3 hPa | 0 mm | - | - | - |
| 1788215583 | 28.89° C | 70% | 1019.3 hPa | 0 mm | - | - | - |
| 1788215283 | 28.33° C | 70% | 1019.3 hPa | 0 mm | - | - | - |
| 1788214983 | 28.89° C | 69% | 1019.3 hPa | 0 mm | - | - | - |
| 1788214683 | 28.89° C | 67% | 1019.3 hPa | 0 mm | - | - | - |
| 1788214383 | 29.44° C | 66% | 1019.3 hPa | 0 mm | - | - | - |
| 1788214085 | 29.44° C | 65% | 1019.3 hPa | 0 mm | - | - | - |
| 1788213783 | 29.44° C | 66% | 1019.3 hPa | 0 mm | - | - | - |
| 1788213483 | 28.89° C | 69% | 1019.3 hPa | 0 mm | - | - | - |
| 1788213183 | 30° C | 65% | 1019.3 hPa | 0 mm | - | - | - |
| 1788212885 | 30° C | 65% | 1019.3 hPa | 0 mm | - | - | - |
| 1788212583 | 30.56° C | 65% | 1019.3 hPa | 0 mm | - | - | - |
| 1788212283 | 30.56° C | 63% | 1019.3 hPa | 0 mm | - | - | - |
| 1788211983 | 30.56° C | 64% | 1019.3 hPa | 0 mm | - | - | - |
| 1788211684 | 30° C | 63% | 1019.3 hPa | 0 mm | - | - | - |
| 1788211383 | 29.44° C | 64% | 1019.6 hPa | 0 mm | - | - | - |
| 1788211083 | 28.89° C | 66% | 1019.6 hPa | 0 mm | - | - | - |
| 1788210783 | 28.33° C | 68% | 1019.6 hPa | 0 mm | - | - | - |
| 1788210483 | 28.33° C | 68% | 1019.6 hPa | 0 mm | - | - | - |
| 1788210184 | 28.89° C | 64% | 1019.9 hPa | 0 mm | - | - | - |
| 1788209885 | 29.44° C | 60% | 1019.9 hPa | 0 mm | - | - | - |
| 1788209584 | 30° C | 62% | 1019.9 hPa | 0 mm | - | - | - |
| 1788209310 | 30° C | 61% | 1019.6 hPa | 0 mm | - | - | - |
| 1788208983 | 29.44° C | 62% | 1019.6 hPa | 0 mm | - | - | - |
* Rain latest hour (hover to see other rain measurements)
** Current wind speed in m/s (hover to see current wind gust speed)